^^
Station Historical Data
 
Daily Summary for April 27, 2017 Units:  Metric    English   Both
« Previous Day
Next Day »
Daily Weekly Monthly Yearly Custom
  Current: High: Low: Average:
Temperature: 4 °C 4.9 °C 4 °C 4.6 °C
Dew Point: 1.4 °C 1.8 °C 1.2 °C 1.5 °C
Humidity: 83 % 83 % 77 % 80 %
Wind Speed: 5.6 km/h 7.4 km/h 0 km/h 2.7 km/h
Wind Gust: 5.6 km/h 7.4 km/h - -
Wind:West - - West
Pressure: 1017.8 hPa 1019.2 hPa 1017.8 hPa -
Precipitation: 0 mm      
Historical Graphs
 
 
Tabular Data for April 27, 2017
Time Temperature Dew Point Pressure Wind Wind Speed Wind Gust Humidity Rainfall Rate (Hourly) solar Conditions
00:03 4.9 °C 1.2 °C 1019.2 hPa West 1.9 km/h   77 % 0 mm 0.0 W/m2 SCT
00:08 4.9 °C 1.4 °C 1019.2 hPa West 4.8 km/h 4.8 km/h 78 % 0 mm 0.0 W/m2 SCT
00:13 4.9 °C 1.4 °C 1018.8 hPa West 3.7 km/h 3.7 km/h 78 % 0 mm 0.0 W/m2 SCT
00:18 4.8 °C 1.3 °C 1019.2 hPa West 3.7 km/h 3.7 km/h 78 % 0 mm 0.0 W/m2 SCT
00:23 4.8 °C 1.5 °C 1018.8 hPa West 3.7 km/h 3.7 km/h 79 % 0 mm 0.0 W/m2 SCT
00:28 4.8 °C 1.4 °C 1018.8 hPa West 5.6 km/h 5.6 km/h 79 % 0 mm 0.0 W/m2 SCT
00:33 4.8 °C 1.4 °C 1018.8 hPa West 3.7 km/h 3.7 km/h 79 % 0 mm 0.0 W/m2 SCT
00:38 4.7 °C 1.4 °C 1018.8 hPa West 3.7 km/h 3.7 km/h 79 % 0 mm 0.0 W/m2 SCT
00:43 4.8 °C 1.4 °C 1018.8 hPa West 3.7 km/h 3.7 km/h 79 % 0 mm 0.0 W/m2 SCT
00:48 4.7 °C 1.4 °C 1018.8 hPa West 1.9 km/h   79 % 0 mm 0.0 W/m2 SCT
00:53 4.7 °C 1.6 °C 1018.5 hPa Calm     80 % 0 mm 0.0 W/m2 SCT
00:58 4.7 °C 1.6 °C 1018.5 hPa West 3.7 km/h 3.7 km/h 80 % 0 mm 0.0 W/m2 SCT
01:03 4.7 °C 1.6 °C 1018.5 hPa Calm     80 % 0 mm 0.0 W/m2 SCT
01:08 4.7 °C 1.5 °C 1018.5 hPa West 1.9 km/h   80 % 0 mm 0.0 W/m2 SCT
01:13 4.7 °C 1.5 °C 1018.5 hPa Calm     80 % 0 mm 0.0 W/m2 SCT
01:18 4.7 °C 1.5 °C 1018.5 hPa Calm     80 % 0 mm 0.0 W/m2 SCT
01:23 4.7 °C 1.7 °C 1018.5 hPa Calm     81 % 0 mm 0.0 W/m2 SCT
01:28 4.7 °C 1.7 °C 1018.5 hPa Calm     81 % 0 mm 0.0 W/m2 SCT
01:33 4.6 °C 1.6 °C 1018.5 hPa West 3.7 km/h 3.7 km/h 81 % 0 mm 0.0 W/m2 SCT
01:38 4.6 °C 1.8 °C 1018.2 hPa West 5.6 km/h 5.6 km/h 82 % 0 mm 0.0 W/m2 SCT
01:43 4.6 °C 1.7 °C 1018.2 hPa West 1.9 km/h 1.9 km/h 82 % 0 mm 0.0 W/m2 SCT
01:48 4.5 °C 1.7 °C 1018.2 hPa Calm     82 % 0 mm 0.0 W/m2 SCT
01:53 4.4 °C 1.6 °C 1018.2 hPa Calm     82 % 0 mm 0.0 W/m2 SCT
01:58 4.4 °C 1.6 °C 1018.2 hPa West 1.6 km/h 1.6 km/h 82 % 0 mm 0.0 W/m2 SCT
02:03 4.3 °C 1.6 °C 1018.2 hPa West 5.6 km/h 5.6 km/h 82 % 0 mm 0.0 W/m2 SCT
02:08 4.2 °C 1.4 °C 1017.8 hPa West 1.9 km/h 1.9 km/h 82 % 0 mm 0.0 W/m2 SCT
02:13 4.1 °C 1.3 °C 1017.8 hPa West 7.4 km/h 7.4 km/h 82 % 0 mm 0.0 W/m2 SCT
02:18 4.1 °C 1.4 °C 1017.8 hPa West 5.6 km/h 5.6 km/h 83 % 0 mm 0.0 W/m2 SCT
02:23 4 °C 1.4 °C 1017.8 hPa West 5.6 km/h 5.6 km/h 83 % 0 mm 0.0 W/m2 SCT
Billingham Weather Station
Compliments of Weather Underground - 2.5 mb